Time;durP1;ratioP1;P1;durP2;ratioP2;P2;SDS_P1;SDS_P2;PMS_P1;PMS_P2;Temp;Humidity;BMP_temperature;BMP_pressure;BME280_temperature;BME280_humidity;BME280_pressure;Samples;Min_cycle;Max_cycle;Signal;HPM_P1;HPM_P2
2023/10/10 00:01:07;;;;;;;12.50;8.10;;;;;;;8.32;99.97;100900.73;105068;1259;81809;-59
2023/10/10 00:03:40;;;;;;;14.20;8.20;;;;;;;8.32;100.00;100903.35;105122;1259;71559;-59
2023/10/10 00:06:09;;;;;;;10.90;8.00;;;;;;;8.30;100.00;100905.13;105046;1259;69157;-59
2023/10/10 00:08:41;;;;;;;13.10;8.10;;;;;;;8.34;100.00;100907.14;105099;1262;69265;-59
2023/10/10 00:11:18;;;;;;;10.50;8.70;;;;;;;8.37;100.00;100907.06;105071;1260;74001;-59
2023/10/10 00:13:52;;;;;;;10.70;7.90;;;;;;;8.38;100.00;100905.49;105060;1259;81425;-59
2023/10/10 00:16:26;;;;;;;10.60;8.10;;;;;;;8.35;100.00;100907.12;105072;1259;73035;-59
2023/10/10 00:18:59;;;;;;;14.50;8.00;;;;;;;8.33;100.00;100909.93;105022;1259;69189;-59
2023/10/10 00:21:28;;;;;;;10.90;8.70;;;;;;;8.35;100.00;100909.56;105069;1262;69134;-59
2023/10/10 00:23:56;;;;;;;11.10;8.70;;;;;;;8.40;100.00;100906.36;105087;1260;73610;-59
2023/10/10 00:26:26;;;;;;;9.90;8.50;;;;;;;8.42;100.00;100902.83;105060;1263;83332;-59
2023/10/10 00:28:55;;;;;;;10.70;7.80;;;;;;;8.40;100.00;100900.08;105075;1260;72858;-59
2023/10/10 00:31:26;;;;;;;12.60;8.80;;;;;;;8.37;100.00;100901.66;105083;1263;69148;-59
2023/10/10 00:33:55;;;;;;;10.80;8.70;;;;;;;8.37;100.00;100902.55;105103;1262;69205;-59
2023/10/10 00:36:31;;;;;;;9.90;8.60;;;;;;;8.39;100.00;100900.96;105101;1260;73631;-59
2023/10/10 00:41:51;;;;;;;11.10;7.90;;;;;;;8.41;100.00;100899.20;105041;1260;71691;-60
2023/10/10 00:44:22;;;;;;;11.40;8.40;;;;;;;8.41;100.00;100909.81;105077;1260;69165;-60
2023/10/10 00:46:54;;;;;;;13.40;8.10;;;;;;;8.40;100.00;100918.00;105087;1262;69208;-60
2023/10/10 00:49:26;;;;;;;10.60;8.30;;;;;;;8.38;100.00;100918.04;105082;1262;73397;-60
2023/10/10 00:51:56;;;;;;;10.00;8.20;;;;;;;8.40;100.00;100925.85;105054;1263;81461;-60
2023/10/10 00:56:55;;;;;;;11.30;8.60;;;;;;;8.45;100.00;100918.27;105087;1262;69132;-60
2023/10/10 01:00:09;;;;;;;11.20;8.70;;;;;;;8.45;100.00;100917.04;105047;1265;69237;-60
2023/10/10 01:02:17;;;;;;;12.70;8.40;;;;;;;8.43;100.00;100909.25;105075;1260;73748;-60
2023/10/10 01:04:49;;;;;;;12.20;9.20;;;;;;;8.45;100.00;100903.82;105074;1262;81484;-60
2023/10/10 01:07:21;;;;;;;14.20;9.50;;;;;;;8.47;100.00;100895.40;105029;1259;71654;-60
2023/10/10 01:09:56;;;;;;;11.90;9.10;;;;;;;8.46;100.00;100896.14;105065;1260;69144;-60
2023/10/10 01:12:28;;;;;;;10.90;8.90;;;;;;;8.45;100.00;100893.54;105085;1263;69783;-60
2023/10/10 01:14:57;;;;;;;11.70;9.80;;;;;;;8.47;100.00;100884.61;105056;1260;74670;-60
2023/10/10 01:17:29;;;;;;;11.00;9.50;;;;;;;8.48;100.00;100884.43;105067;1263;80033;-60
2023/10/10 01:20:09;;;;;;;13.40;9.80;;;;;;;8.51;100.00;100891.67;105057;1262;71990;-60
2023/10/10 01:22:40;;;;;;;12.30;9.30;;;;;;;8.54;100.00;100896.33;105056;1262;69200;-60
2023/10/10 01:28:02;;;;;;;12.40;10.00;;;;;;;8.58;100.00;100895.70;105059;1261;73546;-60
2023/10/10 01:30:44;;;;;;;11.80;9.60;;;;;;;8.53;100.00;100898.43;105056;1262;81587;-60
2023/10/10 01:33:14;;;;;;;13.20;9.60;;;;;;;8.54;100.00;100899.28;105054;1262;72778;-60
2023/10/10 01:35:44;;;;;;;11.80;9.20;;;;;;;8.56;100.00;100895.58;105064;1262;69543;-60
2023/10/10 01:38:21;;;;;;;12.80;9.50;;;;;;;8.54;100.00;100892.31;105016;1263;69253;-60
2023/10/10 01:40:54;;;;;;;13.70;9.60;;;;;;;8.58;100.00;100885.79;105078;1262;73504;-60
2023/10/10 01:43:24;;;;;;;11.60;9.40;;;;;;;8.58;100.00;100881.09;105072;1262;82104;-60
2023/10/10 01:46:08;;;;;;;11.50;8.80;;;;;;;8.58;100.00;100878.30;105074;1260;73036;-60
2023/10/10 01:48:43;;;;;;;12.40;9.70;;;;;;;8.56;100.00;100877.63;105016;1262;69201;-60
2023/10/10 01:51:15;;;;;;;12.20;9.80;;;;;;;8.54;99.99;100879.42;105073;1262;69134;-60
2023/10/10 01:53:43;;;;;;;11.40;9.80;;;;;;;8.54;100.00;100878.04;105039;1262;73152;-60
2023/10/10 01:56:12;;;;;;;14.40;9.80;;;;;;;8.54;100.00;100883.95;105000;1262;81169;-60
2023/10/10 01:58:41;;;;;;;15.10;10.20;;;;;;;8.53;100.00;100881.71;105044;1263;71740;-60
2023/10/10 02:01:14;;;;;;;14.00;10.20;;;;;;;8.54;100.00;100882.91;105068;1264;69097;-60
2023/10/10 02:03:43;;;;;;;13.20;10.40;;;;;;;8.55;100.00;100882.37;105057;1262;69211;-60
2023/10/10 02:06:28;;;;;;;12.90;10.10;;;;;;;8.50;99.99;100877.58;105097;1262;74109;-60
2023/10/10 02:09:10;;;;;;;15.80;10.90;;;;;;;8.45;100.00;100874.90;105062;1260;82731;-60
2023/10/10 02:11:39;;;;;;;15.40;10.90;;;;;;;8.40;100.00;100874.65;105031;1263;72949;-60
2023/10/10 02:14:11;;;;;;;14.30;10.30;;;;;;;8.39;100.00;100875.20;105008;1266;69215;-60
2023/10/10 02:16:40;;;;;;;15.10;10.90;;;;;;;8.40;100.00;100878.15;105082;1260;69177;-60
2023/10/10 02:19:15;;;;;;;13.20;10.90;;;;;;;8.38;100.00;100882.33;105070;1261;74998;-60
2023/10/10 02:22:12;;;;;;;13.80;11.00;;;;;;;8.31;99.96;100885.07;105043;1262;81572;-60
2023/10/10 02:24:40;;;;;;;15.80;11.40;;;;;;;8.27;100.00;100886.37;105031;1262;72821;-60
2023/10/10 02:27:12;;;;;;;13.90;11.10;;;;;;;8.28;100.00;100887.24;105005;1262;69134;-60
2023/10/10 02:29:49;;;;;;;13.30;10.90;;;;;;;8.30;100.00;100885.44;105039;1262;69214;-60
2023/10/10 02:32:21;;;;;;;13.60;10.40;;;;;;;8.30;100.00;100884.95;105109;1262;73536;-60
2023/10/10 02:35:26;;;;;;;12.90;10.50;;;;;;;8.30;100.00;100887.04;105070;1262;81177;-60
2023/10/10 02:37:45;;;;;;;13.90;11.30;;;;;;;8.32;100.00;100888.38;105079;1262;71711;-60
2023/10/10 02:40:15;;;;;;;15.30;11.10;;;;;;;8.33;100.00;100888.00;105008;1266;69186;-60
2023/10/10 02:43:09;;;;;;;13.70;10.70;;;;;;;8.35;100.00;100893.37;105059;1263;69190;-60
2023/10/10 02:45:44;;;;;;;16.50;11.50;;;;;;;8.38;100.00;100895.05;105048;1264;74988;-60
2023/10/10 02:48:20;;;;;;;14.50;10.40;;;;;;;8.38;100.00;100896.11;105010;1263;81482;-60
2023/10/10 02:50:51;;;;;;;15.50;10.90;;;;;;;8.35;100.00;100897.00;104998;1263;72039;-60
2023/10/10 02:53:19;;;;;;;15.80;11.30;;;;;;;8.34;100.00;100901.56;105035;1261;69192;-60
2023/10/10 02:55:51;;;;;;;17.50;11.10;;;;;;;8.38;100.00;100907.59;105036;1262;69174;-60
2023/10/10 02:58:20;;;;;;;16.50;11.40;;;;;;;8.40;100.00;100910.86;105083;1261;73457;-60
2023/10/10 03:00:52;;;;;;;14.30;11.10;;;;;;;8.43;100.00;100909.08;105041;1262;81599;-60
2023/10/10 03:03:20;;;;;;;14.20;11.30;;;;;;;8.44;100.00;100910.09;105001;1263;70669;-60
2023/10/10 03:05:54;;;;;;;15.00;11.80;;;;;;;8.43;100.00;100912.40;105064;1262;69141;-60
2023/10/10 03:08:36;;;;;;;15.40;11.90;;;;;;;8.44;100.00;100913.77;105070;1261;69201;-60
2023/10/10 03:11:35;;;;;;;13.70;11.20;;;;;;;8.45;100.00;100915.31;105035;1264;74103;-60
2023/10/10 03:14:07;;;;;;;17.90;11.30;;;;;;;8.48;100.00;100915.77;105001;1264;80566;-58
2023/10/10 03:16:44;;;;;;;15.50;12.00;;;;;;;8.53;100.00;100915.15;105046;1263;72930;-58
2023/10/10 03:19:26;;;;;;;18.50;12.70;;;;;;;8.51;100.00;100915.70;105059;1257;69129;-59
2023/10/10 03:22:22;;;;;;;16.30;11.50;;;;;;;8.47;100.00;100906.38;105063;1262;69176;-60
2023/10/10 03:27:50;;;;;;;14.80;12.20;;;;;;;8.44;100.00;100893.39;105077;1262;82650;-61
2023/10/10 03:30:34;;;;;;;15.60;11.70;;;;;;;8.44;100.00;100887.13;105048;1263;71689;-58
2023/10/10 03:33:09;;;;;;;18.50;12.30;;;;;;;8.44;100.00;100883.45;105112;1262;69160;-58
2023/10/10 03:35:59;;;;;;;18.10;12.40;;;;;;;8.42;100.00;100886.11;105091;1261;69275;-58
2023/10/10 05:24:16;;;;;;;19.00;13.30;;;;;;;8.80;100.00;100920.00;105133;1263;69229;-58
2023/10/10 05:26:48;;;;;;;18.50;13.30;;;;;;;8.80;100.00;100920.34;104991;1264;69216;-59
2023/10/10 05:29:19;;;;;;;20.60;13.40;;;;;;;8.85;100.00;100917.28;104978;1264;75003;-59
2023/10/10 05:31:51;;;;;;;19.40;12.50;;;;;;;8.86;100.00;100924.21;105036;1263;82720;-58
2023/10/10 05:34:22;;;;;;;17.80;12.50;;;;;;;8.91;100.00;100918.71;105054;1261;71729;-57
2023/10/10 05:36:52;;;;;;;17.80;13.00;;;;;;;8.93;100.00;100921.77;105007;1265;69157;-58
2023/10/10 05:39:22;;;;;;;17.60;12.60;;;;;;;8.96;100.00;100928.00;105064;1263;69222;-59
2023/10/10 05:41:54;;;;;;;17.30;13.20;;;;;;;8.99;100.00;100927.23;105181;1261;73835;-59
2023/10/10 05:44:23;;;;;;;19.10;13.30;;;;;;;9.02;100.00;100927.70;105119;1264;81776;-58
2023/10/10 05:46:52;;;;;;;19.60;13.30;;;;;;;9.05;100.00;100930.26;105162;1264;70632;-59
2023/10/10 05:49:21;;;;;;;20.30;13.90;;;;;;;9.06;100.00;100929.88;105321;1261;69123;-57
2023/10/10 05:51:51;;;;;;;19.40;13.30;;;;;;;9.07;100.00;100935.61;105271;1261;69192;-58
2023/10/10 05:54:21;;;;;;;;;;;;;;;9.10;100.00;100933.29;105294;1263;74127;-58
2023/10/10 05:56:49;;;;;;;19.80;14.20;;;;;;;9.13;100.00;100933.73;105171;1262;81947;-58
2023/10/10 05:59:17;;;;;;;20.30;14.30;;;;;;;9.16;100.00;100932.95;105074;1260;72180;-58
2023/10/10 06:01:45;;;;;;;22.10;15.20;;;;;;;9.21;100.00;100932.51;105090;1264;69592;-58
2023/10/10 06:04:14;;;;;;;18.70;14.10;;;;;;;9.24;100.00;100931.39;105099;1261;69296;-58
2023/10/10 06:06:43;;;;;;;18.50;14.70;;;;;;;9.24;100.00;100935.39;105079;1261;73852;-58
2023/10/10 06:09:18;;;;;;;19.90;14.10;;;;;;;9.30;100.00;100937.89;105208;1263;81621;-58
2023/10/10 06:11:47;;;;;;;18.40;14.20;;;;;;;9.37;100.00;100942.98;105279;1264;72954;-58
2023/10/10 06:14:15;;;;;;;21.30;13.80;;;;;;;9.41;100.00;100945.46;105174;1263;69277;-58
2023/10/10 06:16:44;;;;;;;18.60;14.10;;;;;;;9.43;100.00;100944.89;105048;1261;69304;-59
2023/10/10 06:19:20;;;;;;;22.40;15.00;;;;;;;9.45;100.00;100945.38;105165;1264;75091;-58
2023/10/10 06:21:52;;;;;;;19.80;14.00;;;;;;;9.42;100.00;100945.27;105177;1260;80789;-58
2023/10/10 06:24:22;;;;;;;22.50;14.90;;;;;;;9.44;100.00;100952.03;104844;1260;72417;-59
2023/10/10 06:26:51;;;;;;;19.50;14.70;;;;;;;9.46;100.00;100958.44;105077;1259;69167;-58
2023/10/10 06:29:19;;;;;;;23.90;16.50;;;;;;;9.48;100.00;100966.41;105120;1264;69163;-58
2023/10/10 06:31:49;;;;;;;20.90;14.90;;;;;;;9.51;100.00;100964.95;105059;1260;74061;-57
2023/10/10 06:34:22;;;;;;;22.10;15.60;;;;;;;9.52;100.00;100961.61;105119;1262;82814;-59
2023/10/10 06:36:52;;;;;;;21.80;15.00;;;;;;;9.51;100.00;100960.41;105111;1264;72462;-58
2023/10/10 06:39:21;;;;;;;22.90;16.90;;;;;;;9.54;100.00;100957.02;105251;1264;69161;-58
2023/10/10 06:41:54;;;;;;;28.20;17.30;;;;;;;9.57;100.00;100951.36;105534;1260;69130;-60
2023/10/10 06:44:32;;;;;;;27.40;18.30;;;;;;;9.60;100.00;100953.20;105159;1264;74233;-59
2023/10/10 06:47:08;;;;;;;26.90;17.10;;;;;;;9.60;100.00;100952.86;105106;1261;81486;-58
2023/10/10 06:49:44;;;;;;;26.80;17.70;;;;;;;9.60;100.00;100956.34;105029;1259;71455;-58
2023/10/10 06:52:19;;;;;;;27.50;16.80;;;;;;;9.63;100.00;100956.82;105133;1261;69816;-58
2023/10/10 06:54:53;;;;;;;24.40;17.70;;;;;;;9.64;100.00;100955.73;105277;1264;69160;-58
2023/10/10 06:57:45;;;;;;;23.60;17.30;;;;;;;9.65;100.00;100956.60;105256;1261;74493;-58
2023/10/10 07:00:21;;;;;;;23.70;16.20;;;;;;;9.70;100.00;100949.83;105055;1262;81555;-59
2023/10/10 07:02:55;;;;;;;24.50;16.00;;;;;;;9.77;100.00;100948.27;105140;1261;71941;-62
2023/10/10 07:05:27;;;;;;;21.00;16.20;;;;;;;9.80;100.00;100945.75;105077;1260;69079;-62
2023/10/10 07:07:58;;;;;;;25.30;18.30;;;;;;;9.81;100.00;100947.13;105123;1264;69199;-62
2023/10/10 07:10:35;;;;;;;29.40;17.90;;;;;;;9.79;100.00;100945.77;105089;1262;74091;-61
2023/10/10 07:13:10;;;;;;;31.40;20.90;;;;;;;9.82;100.00;100941.67;105136;1264;82145;-62
2023/10/10 07:15:39;;;;;;;46.30;29.30;;;;;;;9.88;100.00;100942.23;105093;1263;74151;-61
2023/10/10 07:18:22;;;;;;;38.30;25.60;;;;;;;9.88;100.00;100945.19;105132;1262;69247;-60
2023/10/10 07:21:04;;;;;;;35.50;25.60;;;;;;;9.90;100.00;100949.50;105130;1261;69196;-60
2023/10/10 07:23:41;;;;;;;32.10;22.70;;;;;;;9.96;100.00;100951.43;105249;1259;72547;-60
2023/10/10 07:26:23;;;;;;;26.80;18.60;;;;;;;10.01;100.00;100952.71;105045;1262;81412;-61
2023/10/10 07:28:53;;;;;;;24.10;16.30;;;;;;;10.05;100.00;100962.39;105341;1259;73990;-62
2023/10/10 07:31:22;;;;;;;;;;;;;;;10.05;100.00;100964.13;105198;1261;69088;-62
2023/10/10 07:33:55;;;;;;;26.60;18.20;;;;;;;10.06;100.00;100967.59;105355;1261;69203;-63
2023/10/10 07:36:26;;;;;;;27.60;18.10;;;;;;;10.05;100.00;100968.48;105228;1261;74156;-62
2023/10/10 07:39:32;;;;;;;28.70;20.40;;;;;;;10.08;100.00;100967.21;105183;1262;83337;-61
2023/10/10 07:41:47;;;;;;;32.50;22.80;;;;;;;10.11;100.00;100965.38;105071;1260;71674;-60
2023/10/10 07:44:22;;;;;;;46.70;32.00;;;;;;;10.14;100.00;100959.54;105168;1262;69077;-60
2023/10/10 07:49:50;;;;;;;23.10;15.80;;;;;;;10.17;100.00;100947.92;105085;1261;74390;-61
2023/10/10 07:52:20;;;;;;;24.70;15.90;;;;;;;10.14;100.00;100949.77;105183;1261;81563;-61
2023/10/10 07:54:51;;;;;;;26.20;17.90;;;;;;;10.22;100.00;100953.39;105092;1261;72844;-61
2023/10/10 07:57:26;;;;;;;25.20;17.50;;;;;;;10.28;100.00;100956.40;105067;1264;69141;-63
2023/10/10 07:59:55;;;;;;;26.80;19.80;;;;;;;10.34;100.00;100957.99;105079;1264;69210;-61
2023/10/10 08:02:25;;;;;;;26.20;19.30;;;;;;;10.39;100.00;100950.34;105207;1262;73014;-61
2023/10/10 08:04:55;;;;;;;29.80;21.00;;;;;;;10.47;100.00;100947.83;105330;1259;81760;-61
2023/10/10 08:07:24;;;;;;;23.60;16.40;;;;;;;10.57;100.00;100953.86;105294;1260;72143;-60
2023/10/10 08:10:13;;;;;;;21.80;16.40;;;;;;;10.62;100.00;100954.61;105056;1262;69218;-61
2023/10/10 08:12:41;;;;;;;23.10;15.50;;;;;;;10.70;100.00;100957.70;105134;1262;69317;-62
2023/10/10 08:15:19;;;;;;;22.50;15.90;;;;;;;10.72;100.00;100960.24;105228;1260;74210;-61
2023/10/10 08:17:52;;;;;;;23.10;16.50;;;;;;;10.78;100.00;100960.08;105304;1259;82806;-61
2023/10/10 08:21:08;;;;;;;20.10;14.70;;;;;;;10.83;100.00;100961.32;105289;1260;72213;-61
2023/10/10 08:23:24;;;;;;;22.70;14.90;;;;;;;10.92;100.00;100962.65;105242;1262;69104;-62
2023/10/10 08:25:53;;;;;;;24.40;16.40;;;;;;;10.99;100.00;100962.80;105208;1260;69179;-62
2023/10/10 08:28:21;;;;;;;19.90;13.60;;;;;;;11.00;100.00;100961.89;105326;1260;74880;-61
2023/10/10 08:30:51;;;;;;;17.00;13.10;;;;;;;11.01;100.00;100956.80;105205;1262;81936;-61
2023/10/10 08:33:19;;;;;;;18.90;13.30;;;;;;;11.01;100.00;100961.33;105155;1258;73151;-61
2023/10/10 08:35:47;;;;;;;19.60;11.50;;;;;;;11.06;100.00;100959.27;105067;1261;69180;-61
2023/10/10 08:38:19;;;;;;;17.20;12.40;;;;;;;11.09;100.00;100958.11;105177;1260;69120;-61
2023/10/10 08:40:58;;;;;;;15.70;12.80;;;;;;;11.12;100.00;100956.44;105318;1262;75058;-61
2023/10/10 08:43:31;;;;;;;15.40;12.40;;;;;;;11.14;100.00;100939.60;105239;1262;81607;-61
2023/10/10 08:46:04;;;;;;;19.90;13.50;;;;;;;11.18;100.00;100935.46;105122;1259;71844;-61
2023/10/10 08:48:33;;;;;;;19.30;14.40;;;;;;;11.27;100.00;100940.44;105266;1264;69128;-60
2023/10/10 08:51:04;;;;;;;18.50;12.70;;;;;;;11.37;100.00;100948.85;105178;1261;69130;-60
2023/10/10 08:53:35;;;;;;;19.80;13.40;;;;;;;11.48;100.00;100945.53;105237;1262;74999;-62
2023/10/10 08:56:03;;;;;;;18.20;14.00;;;;;;;11.53;100.00;100952.73;105139;1260;81283;-62
2023/10/10 08:58:32;;;;;;;17.20;12.80;;;;;;;11.55;100.00;100956.34;105510;1260;72372;-61
2023/10/10 09:01:00;;;;;;;20.00;13.00;;;;;;;11.62;100.00;100965.58;105151;1261;69177;-61
2023/10/10 09:03:34;;;;;;;17.10;12.80;;;;;;;11.67;100.00;100964.52;105440;1259;69286;-62
2023/10/10 09:06:19;;;;;;;17.10;12.60;;;;;;;11.74;100.00;100962.90;105189;1262;73853;-62
2023/10/10 09:08:50;;;;;;;19.70;12.30;;;;;;;11.82;100.00;100958.42;105177;1262;82565;-61
2023/10/10 09:11:20;;;;;;;17.20;12.80;;;;;;;11.91;100.00;100960.80;105150;1259;72693;-62
2023/10/10 09:13:52;;;;;;;16.70;12.10;;;;;;;11.97;100.00;100960.58;105294;1262;69183;-62
2023/10/10 09:16:44;;;;;;;19.20;13.50;;;;;;;12.00;100.00;100961.89;105163;1260;69162;-62
2023/10/10 09:19:14;;;;;;;22.00;12.90;;;;;;;12.01;100.00;100965.00;105222;1258;75968;-61
2023/10/10 09:21:50;;;;;;;19.60;12.80;;;;;;;12.06;100.00;100964.27;105256;1259;81995;-62
2023/10/10 09:24:31;;;;;;;15.00;12.20;;;;;;;12.15;100.00;100963.27;105216;1260;70689;-62
2023/10/10 09:26:59;;;;;;;;;;;;;;;12.21;100.00;100962.73;105092;1259;69093;-62
2023/10/10 09:29:34;;;;;;;16.30;11.60;;;;;;;12.23;100.00;100960.75;105077;1264;69211;-62
2023/10/10 09:32:05;;;;;;;18.00;11.70;;;;;;;12.29;100.00;100958.23;105250;1262;72870;-62
2023/10/10 09:34:40;;;;;;;16.10;12.10;;;;;;;12.44;100.00;100958.58;105254;1262;82337;-61
2023/10/10 09:37:13;;;;;;;15.70;11.40;;;;;;;12.56;100.00;100963.98;105061;1260;73073;-62
2023/10/10 09:39:43;;;;;;;16.50;11.70;;;;;;;12.67;100.00;100964.42;105135;1262;69142;-61
2023/10/10 09:42:45;;;;;;;15.90;12.10;;;;;;;12.74;100.00;100967.66;105172;1262;69211;-62
2023/10/10 09:45:27;;;;;;;15.60;11.10;;;;;;;12.82;100.00;100971.75;105290;1259;73227;-61
2023/10/10 09:47:57;;;;;;;16.60;11.50;;;;;;;12.89;100.00;100968.19;105151;1262;81841;-61
2023/10/10 09:50:37;;;;;;;;;;;;;;;12.93;100.00;100969.41;105256;1259;72861;-61
2023/10/10 09:53:19;;;;;;;17.20;11.40;;;;;;;12.89;99.69;100966.94;105099;1264;69222;-61
2023/10/10 09:55:53;;;;;;;26.40;18.20;;;;;;;12.89;99.58;100962.20;105180;1259;69194;-61
2023/10/10 09:58:25;;;;;;;15.00;11.50;;;;;;;12.91;99.71;100968.78;105290;1262;74986;-62
2023/10/10 10:00:54;;;;;;;14.00;10.90;;;;;;;12.95;99.58;100965.47;105212;1259;80174;-60
2023/10/10 10:03:31;;;;;;;14.40;10.50;;;;;;;13.01;99.78;100963.70;105245;1258;73441;-61
2023/10/10 10:09:09;;;;;;;;;;;;;;;13.17;99.50;100966.05;105271;1259;69145;-61
2023/10/10 10:11:51;;;;;;;13.10;9.20;;;;;;;13.15;99.25;100965.59;105200;1259;73823;-61
2023/10/10 10:14:36;;;;;;;15.70;10.00;;;;;;;13.15;99.00;100962.94;105142;1260;81791;-62
2023/10/10 10:17:18;;;;;;;11.70;8.90;;;;;;;13.12;98.95;100963.27;105170;1259;71751;-61
2023/10/10 10:19:46;;;;;;;13.60;9.20;;;;;;;13.11;99.12;100965.77;105124;1259;69134;-61
2023/10/10 10:22:17;;;;;;;12.30;8.90;;;;;;;13.11;98.87;100961.90;105242;1260;69190;-63
2023/10/10 10:24:45;;;;;;;11.40;8.40;;;;;;;13.12;99.01;100961.66;105182;1262;74222;-63
2023/10/10 10:27:34;;;;;;;10.70;7.80;;;;;;;13.19;99.23;100964.75;105149;1262;82414;-61
2023/10/10 10:32:47;;;;;;;10.50;7.70;;;;;;;13.33;99.00;100969.85;105174;1262;69202;-61
2023/10/10 10:35:56;;;;;;;10.80;7.20;;;;;;;13.40;98.90;100968.51;105385;1261;69201;-62
2023/10/10 10:38:26;;;;;;;13.30;8.10;;;;;;;13.46;98.95;100970.37;105111;1259;75072;-59
2023/10/10 10:41:04;;;;;;;8.50;7.60;;;;;;;13.50;98.91;100966.73;105324;1262;82814;-59
2023/10/10 10:43:41;;;;;;;12.60;8.20;;;;;;;13.57;98.88;100967.31;105122;1260;71192;-62
2023/10/10 10:46:26;;;;;;;10.20;7.50;;;;;;;13.53;97.97;100966.95;105364;1258;69726;-61
2023/10/10 10:49:05;;;;;;;9.20;6.90;;;;;;;13.47;97.94;100965.60;105577;1259;69226;-61
2023/10/10 10:51:43;;;;;;;10.80;7.90;;;;;;;13.48;98.19;100962.25;105289;1260;74514;-61
2023/10/10 10:54:35;;;;;;;9.90;7.10;;;;;;;13.47;97.99;100960.35;105168;1262;82651;-62
2023/10/10 10:57:02;;;;;;;11.30;8.20;;;;;;;13.50;98.16;100966.01;105108;1260;71188;-61
2023/10/10 10:59:38;;;;;;;13.80;8.90;;;;;;;13.53;98.24;100967.65;105212;1262;69423;-67
2023/10/10 11:02:17;;;;;;;11.40;8.70;;;;;;;13.53;98.17;100968.33;105189;1260;69721;-63
2023/10/10 11:04:50;;;;;;;10.50;8.50;;;;;;;13.54;98.39;100969.00;105240;1260;73746;-63
2023/10/10 11:07:28;;;;;;;11.70;8.20;;;;;;;13.57;98.73;100971.33;105254;1259;82927;-63
2023/10/10 11:10:09;;;;;;;9.80;8.00;;;;;;;13.58;98.57;100970.63;105114;1262;70593;-61
2023/10/10 11:12:40;;;;;;;11.00;8.50;;;;;;;13.54;98.57;100969.52;105110;1261;69126;-59
2023/10/10 11:15:10;;;;;;;9.40;7.60;;;;;;;13.52;98.48;100966.27;105120;1260;69186;-61
2023/10/10 11:17:39;;;;;;;9.20;7.90;;;;;;;13.46;98.40;100963.54;105124;1259;75128;-60
2023/10/10 11:23:11;;;;;;;9.20;6.90;;;;;;;13.46;99.07;100959.67;105173;1259;72999;-59
2023/10/10 11:26:00;;;;;;;8.00;6.60;;;;;;;13.55;99.27;100959.30;105238;1262;69158;-60
2023/10/10 11:28:37;;;;;;;8.40;5.90;;;;;;;13.79;99.91;100957.10;105355;1259;69157;-60
2023/10/10 11:31:07;;;;;;;6.90;6.00;;;;;;;13.99;100.00;100952.59;105107;1259;73565;-60
2023/10/10 11:33:49;;;;;;;7.10;5.50;;;;;;;14.09;100.00;100953.73;105182;1262;82677;-63
2023/10/10 11:36:36;;;;;;;7.30;5.90;;;;;;;14.13;99.84;100954.09;105118;1259;72852;-61
2023/10/10 11:39:31;;;;;;;10.60;6.80;;;;;;;14.19;100.00;100951.35;105212;1262;69146;-60
2023/10/10 11:42:04;;;;;;;8.20;6.40;;;;;;;14.26;100.00;100953.52;105154;1262;69204;-59
2023/10/10 11:44:33;;;;;;;6.10;5.40;;;;;;;14.33;100.00;100948.13;105272;1260;72852;-59
2023/10/10 11:47:07;;;;;;;5.70;4.80;;;;;;;14.39;99.91;100946.98;105276;1259;81941;-59
2023/10/10 11:49:36;;;;;;;6.30;4.90;;;;;;;14.49;99.99;100940.38;105195;1259;72116;-58
2023/10/10 11:52:19;;;;;;;5.30;4.20;;;;;;;14.61;99.91;100941.29;105229;1262;69139;-58
2023/10/10 11:54:47;;;;;;;6.70;4.10;;;;;;;14.71;99.83;100939.05;105164;1262;70040;-59
2023/10/10 11:57:15;;;;;;;6.00;3.50;;;;;;;14.85;99.90;100940.02;105145;1259;75047;-58
2023/10/10 11:59:46;;;;;;;4.00;2.90;;;;;;;15.01;99.85;100942.26;105087;1260;81854;-59
2023/10/10 12:02:18;;;;;;;4.40;3.20;;;;;;;15.14;99.37;100938.47;105197;1258;73029;-59
2023/10/10 12:04:46;;;;;;;3.10;2.80;;;;;;;15.27;99.20;100936.80;105085;1262;69183;-59
2023/10/10 12:07:15;;;;;;;3.10;2.60;;;;;;;15.56;99.58;100926.45;105303;1259;69030;-58
2023/10/10 12:09:44;;;;;;;3.90;2.70;;;;;;;15.89;99.59;100929.70;105124;1259;73652;-59
2023/10/10 12:12:15;;;;;;;3.30;2.60;;;;;;;16.09;98.76;100933.65;105205;1262;82738;-58
2023/10/10 12:14:44;;;;;;;3.30;2.50;;;;;;;16.12;98.05;100934.73;105182;1260;73007;-59
2023/10/10 12:17:14;;;;;;;3.80;2.50;;;;;;;16.22;98.13;100931.75;105341;1260;69084;-58
2023/10/10 12:19:43;;;;;;;2.10;1.70;;;;;;;16.36;97.95;100932.41;105241;1262;69212;-59
2023/10/10 12:22:12;;;;;;;3.10;1.80;;;;;;;16.30;97.02;100935.19;105270;1262;73705;-58
2023/10/10 12:24:41;;;;;;;3.10;1.90;;;;;;;16.19;96.65;100937.55;105332;1262;82745;-58
2023/10/10 12:27:10;;;;;;;2.00;1.80;;;;;;;16.14;96.38;100935.34;105230;1261;71511;-59
2023/10/10 12:29:39;;;;;;;6.60;2.20;;;;;;;16.14;96.38;100929.48;105074;1262;69135;-59
2023/10/10 12:32:15;;;;;;;2.50;1.50;;;;;;;16.19;96.42;100927.50;105223;1262;69145;-58
2023/10/10 12:34:45;;;;;;;3.70;1.90;;;;;;;16.23;96.34;100924.79;105109;1259;75408;-59
2023/10/10 12:37:17;;;;;;;2.00;1.60;;;;;;;16.31;96.39;100924.56;105137;1260;82909;-58
2023/10/10 12:39:46;;;;;;;2.50;1.50;;;;;;;16.39;96.18;100918.34;105090;1261;72034;-58
2023/10/10 12:42:14;;;;;;;2.50;1.40;;;;;;;16.41;95.86;100920.16;105162;1262;69215;-58
2023/10/10 12:44:47;;;;;;;1.80;1.50;;;;;;;16.40;95.67;100918.46;105121;1262;69139;-58
2023/10/10 12:47:17;;;;;;;2.80;1.50;;;;;;;16.41;95.44;100916.09;105156;1259;74967;-58
2023/10/10 12:49:46;;;;;;;1.30;1.20;;;;;;;16.44;95.31;100911.90;105315;1262;82571;-58
2023/10/10 12:52:17;;;;;;;3.20;1.40;;;;;;;16.46;95.08;100908.40;105110;1260;71856;-58
2023/10/10 12:54:48;;;;;;;1.60;1.30;;;;;;;16.47;94.77;100906.41;105199;1259;69186;-59
2023/10/10 12:57:17;;;;;;;1.70;1.30;;;;;;;16.53;94.76;100897.83;105159;1259;69216;-59
2023/10/10 12:59:51;;;;;;;1.80;1.20;;;;;;;16.61;94.68;100891.95;105062;1258;73929;-60
2023/10/10 13:02:25;;;;;;;2.20;1.60;;;;;;;16.70;94.31;100891.92;105127;1262;82664;-60
2023/10/10 13:04:56;;;;;;;1.30;1.20;;;;;;;16.77;93.93;100893.39;105195;1260;71804;-60
2023/10/10 13:07:24;;;;;;;2.00;1.40;;;;;;;16.86;93.75;100890.21;105089;1262;69142;-60
2023/10/10 13:09:55;;;;;;;2.10;1.40;;;;;;;17.04;94.09;100888.18;105281;1259;69231;-60
2023/10/10 13:12:32;;;;;;;2.90;1.90;;;;;;;17.33;94.22;100892.73;105249;1260;72635;-59
2023/10/10 13:15:18;;;;;;;2.40;1.50;;;;;;;17.47;93.35;100894.02;105147;1260;80394;-60
2023/10/10 13:17:50;;;;;;;1.90;1.30;;;;;;;17.50;92.62;100899.33;105074;1260;72244;-60
2023/10/10 13:20:21;;;;;;;1.80;1.50;;;;;;;17.47;92.09;100901.77;105207;1260;69051;-60
2023/10/10 13:22:52;;;;;;;2.10;1.30;;;;;;;17.46;92.19;100899.59;105111;1259;69197;-60
2023/10/10 13:25:21;;;;;;;2.40;1.30;;;;;;;17.48;92.01;100901.73;105144;1262;73727;-59
2023/10/10 13:27:52;;;;;;;2.00;1.50;;;;;;;17.42;91.47;100900.66;105249;1259;82714;-59
2023/10/10 13:30:20;;;;;;;1.90;1.40;;;;;;;17.33;91.12;100898.67;105219;1260;72861;-59
2023/10/10 13:32:49;;;;;;;1.80;1.30;;;;;;;17.23;91.03;100893.80;105095;1261;69109;-59
2023/10/10 13:35:19;;;;;;;2.00;1.30;;;;;;;17.19;91.28;100893.52;105174;1260;69158;-59
2023/10/10 13:37:48;;;;;;;2.30;1.10;;;;;;;17.12;90.88;100891.42;105260;1260;73761;-58
2023/10/10 13:40:22;;;;;;;2.20;1.60;;;;;;;16.99;90.30;100892.17;105108;1262;82891;-59
2023/10/10 13:42:51;;;;;;;3.10;1.50;;;;;;;16.88;90.50;100891.50;105091;1260;73534;-61
2023/10/10 13:45:22;;;;;;;2.20;1.40;;;;;;;16.84;90.53;100893.19;105122;1262;69204;-61